Time,TemperatureF,DewpointF,PressureIn,WindDirection,WindDirectionDegrees,WindSpeedMPH,WindSpeedGustMPH,Humidity,HourlyPrecipIn,Conditions,Clouds,dailyrainin,SoftwareType,DateUTC
2013-01-18 00:02:00,17.0,13.0,-100.00,WSW,240,4.0,6.0,83,-99.99,,,-99.99,,2013-01-18 06:02:00,
2013-01-18 00:33:00,17.0,13.0,-100.00,West,260,1.0,2.0,85,-99.99,,,-99.99,,2013-01-18 06:33:00,
2013-01-18 00:43:00,17.0,13.0,-100.00,West,260,1.0,2.0,85,-99.99,,,-99.99,,2013-01-18 06:43:00,
2013-01-18 00:53:00,17.0,13.0,-100.00,West,260,1.0,2.0,85,-99.99,,,-99.99,,2013-01-18 06:53:00,
2013-01-18 01:02:00,17.0,14.0,-100.00,WSW,245,1.0,1.0,86,-99.99,,,-99.99,,2013-01-18 07:02:00,
2013-01-18 01:12:00,17.0,14.0,-100.00,WSW,245,1.0,1.0,86,-99.99,,,-99.99,,2013-01-18 07:12:00,
2013-01-18 01:22:00,17.0,14.0,-100.00,WSW,245,1.0,1.0,86,-99.99,,,-99.99,,2013-01-18 07:22:00,
2013-01-18 01:32:00,18.0,14.0,-100.00,SW,220,4.0,5.0,86,-99.99,,,-99.99,,2013-01-18 07:32:00,
2013-01-18 01:42:00,18.0,14.0,-100.00,SW,220,4.0,5.0,86,-99.99,,,-99.99,,2013-01-18 07:42:00,
2013-01-18 01:52:00,18.0,14.0,-100.00,SW,220,4.0,5.0,86,-99.99,,,-99.99,,2013-01-18 07:52:00,
2013-01-18 02:02:00,18.0,14.0,-100.00,SW,220,4.0,5.0,86,-99.99,,,-99.99,,2013-01-18 08:02:00,
2013-01-18 02:33:00,19.0,15.0,-100.00,WNW,295,0.0,2.0,85,-99.99,,,-99.99,,2013-01-18 08:33:00,
2013-01-18 02:43:00,19.0,15.0,-100.00,WNW,295,0.0,2.0,85,-99.99,,,-99.99,,2013-01-18 08:43:00,
2013-01-18 02:53:00,19.0,15.0,-100.00,WNW,295,0.0,2.0,85,-99.99,,,-99.99,,2013-01-18 08:53:00,
2013-01-18 03:02:00,19.0,15.0,-100.00,ESE,120,1.0,1.0,84,-99.99,,,-99.99,,2013-01-18 09:02:00,
2013-01-18 03:12:00,19.0,15.0,-100.00,ESE,120,1.0,1.0,84,-99.99,,,-99.99,,2013-01-18 09:12:00,
2013-01-18 03:22:00,19.0,15.0,-100.00,ESE,120,1.0,1.0,84,-99.99,,,-99.99,,2013-01-18 09:22:00,
2013-01-18 03:33:00,20.0,16.0,-100.00,ESE,110,2.0,2.0,83,-99.99,,,-99.99,,2013-01-18 09:33:00,
2013-01-18 03:42:00,20.0,16.0,-100.00,ESE,110,2.0,2.0,83,-99.99,,,-99.99,,2013-01-18 09:42:00,
2013-01-18 03:53:00,20.0,16.0,-100.00,ESE,110,2.0,2.0,83,-99.99,,,-99.99,,2013-01-18 09:53:00,
2013-01-18 04:02:00,20.0,16.0,-100.00,ESE,110,2.0,2.0,83,-99.99,,,-99.99,,2013-01-18 10:02:00,
2013-01-18 04:33:00,20.0,15.0,-100.00,East,100,6.0,7.0,83,-99.99,,,-99.99,,2013-01-18 10:33:00,
2013-01-18 04:43:00,20.0,15.0,-100.00,East,100,6.0,7.0,83,-99.99,,,-99.99,,2013-01-18 10:43:00,
2013-01-18 04:53:00,20.0,15.0,-100.00,East,100,6.0,7.0,83,-99.99,,,-99.99,,2013-01-18 10:53:00,
2013-01-18 05:02:00,20.0,15.0,-100.00,East,100,6.0,7.0,83,-99.99,,,-99.99,,2013-01-18 11:02:00,
2013-01-18 05:33:00,20.0,15.0,-100.00,SE,135,6.0,8.0,81,-99.99,,,-99.99,,2013-01-18 11:33:00,
2013-01-18 05:43:00,20.0,15.0,-100.00,SE,135,6.0,8.0,81,-99.99,,,-99.99,,2013-01-18 11:43:00,
2013-01-18 05:53:00,20.0,15.0,-100.00,SE,135,6.0,8.0,81,-99.99,,,-99.99,,2013-01-18 11:53:00,
2013-01-18 06:03:00,20.0,15.0,-100.00,SE,135,6.0,8.0,81,-99.99,,,-99.99,,2013-01-18 12:03:00,
2013-01-18 06:33:00,20.0,16.0,-100.00,SE,140,9.0,14.0,82,-99.99,,,-99.99,,2013-01-18 12:33:00,
2013-01-18 06:43:00,20.0,16.0,-100.00,SE,140,9.0,14.0,82,-99.99,,,-99.99,,2013-01-18 12:43:00,
2013-01-18 06:53:00,20.0,16.0,-100.00,SE,140,9.0,14.0,82,-99.99,,,-99.99,,2013-01-18 12:53:00,
2013-01-18 07:03:00,20.0,16.0,-100.00,SE,140,9.0,14.0,82,-99.99,,,-99.99,,2013-01-18 13:03:00,
2013-01-18 07:33:00,22.0,16.0,-100.00,SE,135,11.0,17.0,78,-99.99,,,-99.99,,2013-01-18 13:33:00,
2013-01-18 07:43:00,22.0,16.0,-100.00,SE,135,11.0,17.0,78,-99.99,,,-99.99,,2013-01-18 13:43:00,
2013-01-18 07:53:00,22.0,16.0,-100.00,SE,135,11.0,17.0,78,-99.99,,,-99.99,,2013-01-18 13:53:00,
2013-01-18 08:03:00,22.0,16.0,-100.00,SE,135,11.0,17.0,78,-99.99,,,-99.99,,2013-01-18 14:03:00,
2013-01-18 08:12:00,24.0,18.0,-100.00,SSE,150,10.0,16.0,77,-99.99,,,-99.99,,2013-01-18 14:12:00,
2013-01-18 08:23:00,24.0,18.0,-100.00,SSE,150,10.0,16.0,77,-99.99,,,-99.99,,2013-01-18 14:23:00,
2013-01-18 08:33:00,25.0,18.0,-100.00,SSE,150,9.0,14.0,76,-99.99,,,-99.99,,2013-01-18 14:33:00,
2013-01-18 08:42:00,25.0,18.0,-100.00,SSE,150,9.0,14.0,76,-99.99,,,-99.99,,2013-01-18 14:42:00,
2013-01-18 08:53:00,25.0,18.0,-100.00,SSE,150,9.0,14.0,76,-99.99,,,-99.99,,2013-01-18 14:53:00,
2013-01-18 09:03:00,27.0,20.0,-100.00,SSE,150,13.0,22.0,74,-99.99,,,-99.99,,2013-01-18 15:03:00,
2013-01-18 09:12:00,27.0,20.0,-100.00,SSE,150,13.0,22.0,74,-99.99,,,-99.99,,2013-01-18 15:12:00,
2013-01-18 09:23:00,27.0,20.0,-100.00,SSE,150,13.0,22.0,74,-99.99,,,-99.99,,2013-01-18 15:23:00,
2013-01-18 09:33:00,29.0,20.0,-100.00,SSE,160,17.0,27.0,71,-99.99,,,-99.99,,2013-01-18 15:33:00,
2013-01-18 09:43:00,29.0,20.0,-100.00,SSE,160,17.0,27.0,71,-99.99,,,-99.99,,2013-01-18 15:43:00,
2013-01-18 09:54:00,29.0,20.0,-100.00,SSE,160,17.0,27.0,71,-99.99,,,-99.99,,2013-01-18 15:54:00,
2013-01-18 10:03:00,29.0,20.0,-100.00,SSE,160,17.0,27.0,71,-99.99,,,-99.99,,2013-01-18 16:03:00,
2013-01-18 10:33:00,31.0,21.0,-100.00,SSE,165,16.0,24.0,68,-99.99,,,-99.99,,2013-01-18 16:33:00,
2013-01-18 10:43:00,31.0,21.0,-100.00,SSE,165,16.0,24.0,68,-99.99,,,-99.99,,2013-01-18 16:43:00,
2013-01-18 10:53:00,31.0,21.0,-100.00,SSE,165,16.0,24.0,68,-99.99,,,-99.99,,2013-01-18 16:53:00,
2013-01-18 11:03:00,32.0,22.0,-100.00,South,170,15.0,26.0,66,-99.99,,,-99.99,,2013-01-18 17:03:00,
2013-01-18 11:13:00,32.0,22.0,-100.00,South,170,15.0,26.0,66,-99.99,,,-99.99,,2013-01-18 17:13:00,
2013-01-18 11:23:00,32.0,22.0,-100.00,South,170,15.0,26.0,66,-99.99,,,-99.99,,2013-01-18 17:23:00,
2013-01-18 11:33:00,32.0,22.0,-100.00,South,170,15.0,26.0,66,-99.99,,,-99.99,,2013-01-18 17:33:00,
2013-01-18 12:03:00,35.0,24.0,-100.00,South,170,15.0,30.0,64,-99.99,,,-99.99,,2013-01-18 18:03:00,
2013-01-18 12:13:00,35.0,24.0,-100.00,South,170,15.0,30.0,64,-99.99,,,-99.99,,2013-01-18 18:13:00,
2013-01-18 12:23:00,35.0,24.0,-100.00,South,170,15.0,30.0,64,-99.99,,,-99.99,,2013-01-18 18:23:00,
2013-01-18 12:33:00,36.0,24.0,-100.00,SSE,160,17.0,35.0,63,-99.99,,,-99.99,,2013-01-18 18:33:00,
2013-01-18 12:43:00,36.0,24.0,-100.00,SSE,160,17.0,35.0,63,-99.99,,,-99.99,,2013-01-18 18:43:00,
2013-01-18 12:53:00,36.0,24.0,-100.00,SSE,160,17.0,35.0,63,-99.99,,,-99.99,,2013-01-18 18:53:00,
2013-01-18 13:03:00,36.0,24.0,-100.00,SSE,160,17.0,35.0,63,-99.99,,,-99.99,,2013-01-18 19:03:00,
2013-01-18 13:33:00,38.0,26.0,-100.00,SSE,160,17.0,30.0,61,-99.99,,,-99.99,,2013-01-18 19:33:00,
2013-01-18 13:43:00,38.0,26.0,-100.00,SSE,160,17.0,30.0,61,-99.99,,,-99.99,,2013-01-18 19:43:00,
2013-01-18 13:53:00,38.0,26.0,-100.00,SSE,160,17.0,30.0,61,-99.99,,,-99.99,,2013-01-18 19:53:00,
2013-01-18 14:03:00,38.0,26.0,-100.00,SSE,160,17.0,30.0,61,-99.99,,,-99.99,,2013-01-18 20:03:00,
2013-01-18 14:33:00,40.0,27.0,-100.00,South,180,21.0,35.0,59,-99.99,,,-99.99,,2013-01-18 20:33:00,
2013-01-18 14:43:00,40.0,27.0,-100.00,South,180,21.0,35.0,59,-99.99,,,-99.99,,2013-01-18 20:43:00,
2013-01-18 14:53:00,40.0,27.0,-100.00,South,180,21.0,35.0,59,-99.99,,,-99.99,,2013-01-18 20:53:00,
2013-01-18 15:03:00,40.0,27.0,-100.00,South,180,21.0,35.0,59,-99.99,,,-99.99,,2013-01-18 21:03:00,
2013-01-18 15:33:00,41.0,28.0,-100.00,South,170,12.0,23.0,59,-99.99,,,-99.99,,2013-01-18 21:33:00,
2013-01-18 15:43:00,41.0,28.0,-100.00,South,170,12.0,23.0,59,-99.99,,,-99.99,,2013-01-18 21:43:00,
2013-01-18 15:53:00,41.0,28.0,-100.00,South,170,12.0,23.0,59,-99.99,,,-99.99,,2013-01-18 21:53:00,
2013-01-18 16:03:00,41.0,28.0,-100.00,South,170,12.0,23.0,59,-99.99,,,-99.99,,2013-01-18 22:03:00,
2013-01-18 16:33:00,41.0,28.0,-100.00,South,170,12.0,22.0,60,-99.99,,,-99.99,,2013-01-18 22:33:00,
2013-01-18 16:43:00,41.0,28.0,-100.00,South,170,12.0,22.0,60,-99.99,,,-99.99,,2013-01-18 22:43:00,
2013-01-18 16:53:00,41.0,28.0,-100.00,South,170,12.0,22.0,60,-99.99,,,-99.99,,2013-01-18 22:53:00,
2013-01-18 17:03:00,41.0,28.0,-100.00,South,170,12.0,22.0,60,-99.99,,,-99.99,,2013-01-18 23:03:00,
2013-01-18 17:33:00,40.0,28.0,-100.00,South,170,11.0,19.0,64,-99.99,,,-99.99,,2013-01-18 23:33:00,
2013-01-18 17:43:00,40.0,28.0,-100.00,South,170,11.0,19.0,64,-99.99,,,-99.99,,2013-01-18 23:43:00,
2013-01-18 17:53:00,40.0,28.0,-100.00,South,170,11.0,19.0,64,-99.99,,,-99.99,,2013-01-18 23:53:00,
2013-01-18 18:02:00,40.0,28.0,-100.00,South,170,11.0,19.0,64,-99.99,,,-99.99,,2013-01-19 00:02:00,
2013-01-18 18:33:00,39.0,29.0,-100.00,South,170,12.0,19.0,67,-99.99,,,-99.99,,2013-01-19 00:33:00,
2013-01-18 18:43:00,39.0,29.0,-100.00,South,170,12.0,19.0,67,-99.99,,,-99.99,,2013-01-19 00:43:00,
2013-01-18 18:53:00,39.0,29.0,-100.00,South,170,12.0,19.0,67,-99.99,,,-99.99,,2013-01-19 00:53:00,
2013-01-18 19:02:00,39.0,30.0,-100.00,South,170,10.0,21.0,68,-99.99,,,-99.99,,2013-01-19 01:02:00,
2013-01-18 19:12:00,39.0,30.0,-100.00,South,170,10.0,21.0,68,-99.99,,,-99.99,,2013-01-19 01:12:00,
2013-01-18 19:22:00,39.0,30.0,-100.00,South,170,10.0,21.0,68,-99.99,,,-99.99,,2013-01-19 01:22:00,
2013-01-18 19:32:00,39.0,29.0,-100.00,SSE,160,10.0,16.0,69,-99.99,,,-99.99,,2013-01-19 01:32:00,
2013-01-18 19:43:00,39.0,29.0,-100.00,SSE,160,10.0,16.0,69,-99.99,,,-99.99,,2013-01-19 01:43:00,
2013-01-18 19:53:00,39.0,29.0,-100.00,SSE,160,10.0,16.0,69,-99.99,,,-99.99,,2013-01-19 01:53:00,
2013-01-18 20:02:00,39.0,29.0,-100.00,SSE,160,10.0,16.0,69,-99.99,,,-99.99,,2013-01-19 02:02:00,
2013-01-18 20:33:00,38.0,29.0,-100.00,South,185,7.0,13.0,72,-99.99,,,-99.99,,2013-01-19 02:33:00,
2013-01-18 20:43:00,38.0,29.0,-100.00,South,185,7.0,13.0,72,-99.99,,,-99.99,,2013-01-19 02:43:00,
2013-01-18 20:53:00,38.0,29.0,-100.00,South,185,7.0,13.0,72,-99.99,,,-99.99,,2013-01-19 02:53:00,
2013-01-18 21:03:00,38.0,29.0,-100.00,South,185,7.0,12.0,72,-99.99,,,-99.99,,2013-01-19 03:03:00,
2013-01-18 21:12:00,38.0,29.0,-100.00,South,185,7.0,12.0,72,-99.99,,,-99.99,,2013-01-19 03:12:00,
2013-01-18 21:22:00,38.0,29.0,-100.00,South,185,7.0,12.0,72,-99.99,,,-99.99,,2013-01-19 03:22:00,
2013-01-18 21:33:00,38.0,30.0,-100.00,South,180,7.0,12.0,71,-99.99,,,-99.99,,2013-01-19 03:33:00,
2013-01-18 21:44:00,38.0,30.0,-100.00,South,180,7.0,12.0,71,-99.99,,,-99.99,,2013-01-19 03:44:00,
2013-01-18 21:53:00,38.0,30.0,-100.00,South,180,7.0,12.0,71,-99.99,,,-99.99,,2013-01-19 03:53:00,
2013-01-18 22:02:00,39.0,30.0,-100.00,SSW,195,7.0,17.0,68,-99.99,,,-99.99,,2013-01-19 04:02:00,
2013-01-18 22:12:00,39.0,30.0,-100.00,SSW,195,7.0,17.0,68,-99.99,,,-99.99,,2013-01-19 04:12:00,
2013-01-18 22:22:00,39.0,30.0,-100.00,SSW,195,7.0,17.0,68,-99.99,,,-99.99,,2013-01-19 04:22:00,
2013-01-18 22:32:00,39.0,30.0,-100.00,SSW,200,4.0,13.0,70,-99.99,,,-99.99,,2013-01-19 04:32:00,
2013-01-18 22:43:00,39.0,30.0,-100.00,SSW,200,4.0,13.0,70,-99.99,,,-99.99,,2013-01-19 04:43:00,
2013-01-18 22:53:00,39.0,30.0,-100.00,SSW,200,4.0,13.0,70,-99.99,,,-99.99,,2013-01-19 04:53:00,
2013-01-18 23:03:00,39.0,30.0,-100.00,SW,215,7.0,16.0,70,-99.99,,,-99.99,,2013-01-19 05:03:00,
2013-01-18 23:12:00,39.0,30.0,-100.00,SW,215,7.0,16.0,70,-99.99,,,-99.99,,2013-01-19 05:12:00,
2013-01-18 23:23:00,39.0,30.0,-100.00,SW,215,7.0,16.0,70,-99.99,,,-99.99,,2013-01-19 05:23:00,
2013-01-18 23:33:00,38.0,29.0,-100.00,SSW,205,6.0,16.0,70,-99.99,,,-99.99,,2013-01-19 05:33:00,
2013-01-18 23:43:00,38.0,29.0,-100.00,SSW,205,6.0,16.0,70,-99.99,,,-99.99,,2013-01-19 05:43:00,
2013-01-18 23:53:00,38.0,29.0,-100.00,SSW,205,6.0,16.0,70,-99.99,,,-99.99,,2013-01-19 05:53:00,